createdAt,value
2023-03-15T00:01:50.648Z,87.10
2023-03-15T00:04:17.708Z,87.40
2023-03-15T00:06:44.603Z,87.50
2023-03-15T00:09:11.427Z,87.70
2023-03-15T00:11:38.503Z,87.90
2023-03-15T00:14:06.084Z,88.10
2023-03-15T00:16:33.113Z,88.10
2023-03-15T00:19:00.780Z,88.10
2023-03-15T00:21:29.913Z,88.20
2023-03-15T00:23:57.071Z,88.40
2023-03-15T00:26:24.064Z,88.60
2023-03-15T00:28:51.130Z,88.50
2023-03-15T00:31:22.014Z,88.70
2023-03-15T00:33:49.625Z,88.60
2023-03-15T00:36:16.856Z,88.50
2023-03-15T00:38:46.550Z,88.50
2023-03-15T00:41:18.488Z,88.40
2023-03-15T00:43:46.096Z,87.50
2023-03-15T00:46:14.221Z,86.80
2023-03-15T00:48:41.277Z,86.60
2023-03-15T00:51:18.943Z,86.10
2023-03-15T00:53:48.112Z,86.10
2023-03-15T00:56:19.564Z,86.00
2023-03-15T00:58:47.000Z,86.60
2023-03-15T01:01:24.192Z,87.10
2023-03-15T01:03:51.242Z,88.00
2023-03-15T01:06:22.870Z,88.20
2023-03-15T01:08:49.988Z,87.90
2023-03-15T01:11:24.201Z,87.00
2023-03-15T01:13:57.897Z,85.50
2023-03-15T01:16:25.283Z,84.60
2023-03-15T01:18:53.152Z,83.50
2023-03-15T01:21:22.588Z,83.50
2023-03-15T01:23:50.501Z,83.80
2023-03-15T01:26:18.153Z,84.20
2023-03-15T01:28:46.819Z,84.80
2023-03-15T01:31:25.692Z,85.20
2023-03-15T01:33:53.665Z,86.70
2023-03-15T01:36:20.825Z,86.60
2023-03-15T01:38:49.581Z,86.90
2023-03-15T01:41:18.616Z,87.30
2023-03-15T01:43:49.185Z,87.60
2023-03-15T01:46:35.685Z,87.80
2023-03-15T01:49:13.436Z,88.00
2023-03-15T01:51:49.078Z,88.40
2023-03-15T01:54:27.127Z,88.40
2023-03-15T01:57:22.945Z,89.10
2023-03-15T02:00:02.279Z,89.10
2023-03-15T02:02:29.715Z,89.00
2023-03-15T02:05:09.979Z,88.80
2023-03-15T02:07:49.741Z,89.00
2023-03-15T02:10:30.743Z,88.80
2023-03-15T02:12:59.519Z,89.30
2023-03-15T02:15:27.127Z,89.00
2023-03-15T02:17:54.001Z,89.00
2023-03-15T02:21:12.991Z,89.20
2023-03-15T02:23:40.630Z,90.20
2023-03-15T02:26:28.082Z,89.60
2023-03-15T02:28:56.038Z,89.80
2023-03-15T02:31:23.048Z,89.50
2023-03-15T02:33:52.792Z,89.70
2023-03-15T02:36:26.625Z,90.00
2023-03-15T02:38:56.331Z,90.00
2023-03-15T02:41:32.433Z,90.00
2023-03-15T02:44:11.486Z,90.00
2023-03-15T02:46:38.495Z,89.90
2023-03-15T02:49:08.531Z,89.80
2023-03-15T02:51:35.453Z,89.90
2023-03-15T02:54:04.187Z,89.50
2023-03-15T02:56:33.536Z,89.50
2023-03-15T02:59:00.821Z,89.70
2023-03-15T03:01:27.671Z,89.80
2023-03-15T03:03:54.519Z,89.90
2023-03-15T03:06:21.437Z,89.80
2023-03-15T03:08:48.500Z,89.90
2023-03-15T03:11:16.356Z,89.90
2023-03-15T03:13:44.019Z,89.70
2023-03-15T03:16:11.435Z,89.60
2023-03-15T03:18:39.337Z,89.20
2023-03-15T03:21:08.086Z,89.30
2023-03-15T03:23:36.927Z,89.50
2023-03-15T03:26:16.696Z,89.60
2023-03-15T03:28:46.789Z,89.60
2023-03-15T03:31:22.383Z,89.50
2023-03-15T03:33:49.448Z,89.20
2023-03-15T03:36:16.450Z,88.80
2023-03-15T03:38:46.171Z,89.00
2023-03-15T03:41:15.364Z,89.10
2023-03-15T03:43:42.750Z,89.20
2023-03-15T03:46:09.823Z,89.40
2023-03-15T03:48:36.731Z,89.80
2023-03-15T03:51:03.876Z,90.00
2023-03-15T03:53:31.049Z,90.10
2023-03-15T03:55:57.885Z,90.20
2023-03-15T03:58:24.775Z,90.20
2023-03-15T04:00:55.625Z,90.20
2023-03-15T04:03:27.866Z,90.20
2023-03-15T04:05:56.542Z,90.20
2023-03-15T04:08:26.173Z,90.20
2023-03-15T04:10:56.472Z,90.20
2023-03-15T04:13:24.963Z,90.20
2023-03-15T04:15:57.532Z,90.10
2023-03-15T04:18:25.165Z,90.10
2023-03-15T04:20:54.850Z,89.60
2023-03-15T04:23:23.821Z,89.30
2023-03-15T04:25:52.421Z,89.50
2023-03-15T04:28:19.977Z,89.40
2023-03-15T04:30:49.696Z,89.30
2023-03-15T04:33:16.871Z,89.50
2023-03-15T04:35:43.867Z,89.70
2023-03-15T04:38:10.899Z,89.80
2023-03-15T04:40:37.800Z,89.80
2023-03-15T04:43:05.927Z,89.90
2023-03-15T04:45:33.362Z,90.10
2023-03-15T04:48:02.448Z,90.20
2023-03-15T04:50:30.833Z,90.30
2023-03-15T04:53:01.594Z,90.30
2023-03-15T04:55:28.866Z,90.30
2023-03-15T04:57:56.735Z,91.10
2023-03-15T05:00:23.693Z,90.20
2023-03-15T05:02:54.956Z,90.20
2023-03-15T05:05:23.895Z,90.30
2023-03-15T05:07:51.250Z,90.30
2023-03-15T05:10:18.625Z,90.30
2023-03-15T05:12:45.448Z,90.30
2023-03-15T05:15:12.521Z,90.30
2023-03-15T05:17:39.380Z,90.10
2023-03-15T05:20:13.175Z,89.90
2023-03-15T05:22:41.024Z,89.90
2023-03-15T05:25:10.382Z,89.70
2023-03-15T05:27:38.304Z,89.70
2023-03-15T05:30:07.415Z,89.50
2023-03-15T05:32:35.241Z,89.70
2023-03-15T05:35:03.041Z,89.80
2023-03-15T05:37:32.812Z,90.00
2023-03-15T05:40:01.431Z,90.10
2023-03-15T05:42:29.301Z,90.20
2023-03-15T05:44:57.344Z,90.20
2023-03-15T05:47:24.858Z,90.10
2023-03-15T05:49:52.521Z,90.00
2023-03-15T05:52:19.458Z,90.10
2023-03-15T05:54:46.380Z,90.10
2023-03-15T05:57:13.204Z,90.20
2023-03-15T05:59:40.038Z,90.30
2023-03-15T06:02:07.381Z,90.50
2023-03-15T06:04:34.532Z,90.90
2023-03-15T06:07:01.656Z,90.80
2023-03-15T06:09:28.567Z,90.80
2023-03-15T06:11:56.042Z,90.70
2023-03-15T06:14:22.904Z,90.50
2023-03-15T06:16:49.868Z,90.20
2023-03-15T06:19:16.709Z,90.20
2023-03-15T06:21:44.043Z,90.10
2023-03-15T06:24:11.262Z,90.00
2023-03-15T06:26:38.634Z,90.10
2023-03-15T06:29:06.373Z,90.10
2023-03-15T06:31:33.262Z,90.00
2023-03-15T06:34:00.123Z,89.90
2023-03-15T06:36:27.261Z,89.90
2023-03-15T06:38:54.540Z,90.00
2023-03-15T06:41:21.512Z,90.20
2023-03-15T06:43:48.395Z,90.50
2023-03-15T06:46:15.862Z,90.60
2023-03-15T06:48:43.035Z,90.50
2023-03-15T06:51:10.111Z,90.50
2023-03-15T06:53:39.956Z,90.50
2023-03-15T06:56:07.249Z,90.60
2023-03-15T06:58:34.129Z,90.70
2023-03-15T07:01:00.962Z,90.80
2023-03-15T07:03:27.805Z,91.00
2023-03-15T07:05:54.761Z,91.30
2023-03-15T07:08:24.928Z,91.30
2023-03-15T07:10:52.534Z,91.10
2023-03-15T07:13:19.732Z,90.90
2023-03-15T07:15:50.914Z,91.00
2023-03-15T07:18:17.765Z,90.80
2023-03-15T07:20:44.812Z,90.70
2023-03-15T07:23:11.614Z,90.60
2023-03-15T07:25:53.882Z,90.60
2023-03-15T07:28:24.222Z,90.70
2023-03-15T07:31:01.776Z,91.10
2023-03-15T07:33:31.936Z,91.00
2023-03-15T07:36:00.050Z,90.80
2023-03-15T07:38:28.923Z,91.00
2023-03-15T07:40:57.025Z,91.10
2023-03-15T07:43:24.534Z,91.10
2023-03-15T07:45:51.413Z,91.30
2023-03-15T07:48:18.744Z,91.50
2023-03-15T07:50:46.101Z,92.00
2023-03-15T07:53:13.098Z,91.90
2023-03-15T07:55:40.141Z,90.90
2023-03-15T07:58:07.170Z,90.30
2023-03-15T08:00:34.020Z,91.10
2023-03-15T08:03:01.103Z,91.40
2023-03-15T08:05:29.223Z,92.00
2023-03-15T08:07:56.640Z,92.00
2023-03-15T08:10:23.861Z,90.40
2023-03-15T08:12:50.823Z,87.90
2023-03-15T08:15:18.775Z,88.10
2023-03-15T08:17:48.778Z,87.60
2023-03-15T08:20:19.683Z,87.60
2023-03-15T08:22:49.551Z,86.50
2023-03-15T08:25:21.452Z,85.10
2023-03-15T08:27:48.667Z,84.40
2023-03-15T08:30:17.228Z,83.90
2023-03-15T08:32:46.877Z,82.80
2023-03-15T08:35:16.486Z,80.70
2023-03-15T08:37:47.922Z,78.20
2023-03-15T08:40:19.253Z,77.70
2023-03-15T08:42:46.597Z,77.60
2023-03-15T08:45:13.520Z,79.20
2023-03-15T08:47:40.345Z,77.40
2023-03-15T08:50:14.456Z,80.10
2023-03-15T08:52:42.278Z,82.50
2023-03-15T08:55:10.723Z,83.60
2023-03-15T08:57:37.616Z,82.30
2023-03-15T09:00:09.444Z,81.10
2023-03-15T09:02:39.096Z,78.50
2023-03-15T09:05:07.236Z,75.60
2023-03-15T09:07:34.557Z,78.20
2023-03-15T09:10:03.515Z,78.90
2023-03-15T09:12:32.186Z,80.20
2023-03-15T09:14:59.028Z,81.20
2023-03-15T09:17:26.029Z,77.90
2023-03-15T09:19:52.902Z,75.10
2023-03-15T09:22:34.760Z,76.00
2023-03-15T09:25:05.645Z,78.00
2023-03-15T09:27:32.628Z,82.60
2023-03-15T09:30:00.107Z,85.80
2023-03-15T09:32:27.372Z,87.40
2023-03-15T09:34:54.468Z,86.80
2023-03-15T09:37:21.948Z,83.40
2023-03-15T09:39:48.913Z,84.90
2023-03-15T09:42:38.958Z,86.70
2023-03-15T09:45:11.327Z,86.90
2023-03-15T09:47:53.182Z,81.70
2023-03-15T09:50:31.510Z,81.40
2023-03-15T09:53:00.043Z,81.40
2023-03-15T09:55:28.726Z,79.30
2023-03-15T09:58:11.314Z,77.80
2023-03-15T10:00:49.871Z,77.90
2023-03-15T10:03:32.414Z,77.70
2023-03-15T10:06:11.619Z,74.00
2023-03-15T10:08:38.695Z,74.10
2023-03-15T10:11:35.297Z,71.20
2023-03-15T10:14:17.824Z,74.40
2023-03-15T10:16:47.921Z,69.30
2023-03-15T10:19:45.876Z,67.60
2023-03-15T10:22:44.172Z,67.80
2023-03-15T10:25:26.067Z,71.10
2023-03-15T10:28:36.213Z,72.80
2023-03-15T10:31:21.624Z,72.10
2023-03-15T10:33:57.202Z,82.20
2023-03-15T10:36:25.816Z,81.70
2023-03-15T10:38:52.817Z,85.20
2023-03-15T10:41:41.790Z,89.40
2023-03-15T10:44:25.161Z,86.00
2023-03-15T10:47:22.003Z,88.70
2023-03-15T10:49:55.504Z,80.80
2023-03-15T10:52:27.616Z,79.50
2023-03-15T10:54:58.785Z,74.80
2023-03-15T10:57:39.172Z,74.10
2023-03-15T11:00:31.239Z,72.60
2023-03-15T11:03:23.445Z,70.80
2023-03-15T11:05:54.072Z,71.70
2023-03-15T11:08:41.800Z,73.70
2023-03-15T11:11:09.954Z,72.30
2023-03-15T11:13:41.935Z,73.60
2023-03-15T11:16:21.944Z,72.80
2023-03-15T11:18:58.822Z,71.50
2023-03-15T11:21:33.570Z,73.30
2023-03-15T11:24:04.370Z,73.20
2023-03-15T11:26:39.246Z,75.70
2023-03-15T11:29:16.238Z,77.20
2023-03-15T11:31:43.430Z,77.50
2023-03-15T11:34:26.817Z,77.20
2023-03-15T11:37:08.394Z,73.80
2023-03-15T11:39:58.831Z,76.00
2023-03-15T11:42:38.909Z,76.90
2023-03-15T11:45:18.641Z,78.10
2023-03-15T11:47:58.252Z,76.40
2023-03-15T11:50:25.186Z,76.70
2023-03-15T11:52:53.497Z,80.80
2023-03-15T11:55:28.276Z,80.90
2023-03-15T11:57:58.446Z,78.80
2023-03-15T12:00:51.432Z,81.70
2023-03-15T12:03:38.749Z,75.80
2023-03-15T12:06:16.437Z,76.50
2023-03-15T12:08:45.951Z,81.60
2023-03-15T12:11:34.598Z,82.10
2023-03-15T12:14:01.632Z,82.10
2023-03-15T12:16:41.899Z,82.50
2023-03-15T12:19:18.505Z,80.50
2023-03-15T12:21:58.622Z,78.90
2023-03-15T12:24:29.039Z,76.50
2023-03-15T12:27:21.316Z,83.70
2023-03-15T12:29:59.708Z,80.60
2023-03-15T12:32:30.291Z,85.50
2023-03-15T12:35:08.850Z,85.20
2023-03-15T12:37:44.939Z,85.80
2023-03-15T12:40:22.275Z,83.90
2023-03-15T12:42:49.151Z,81.10
2023-03-15T12:45:15.950Z,83.00
2023-03-15T12:47:52.234Z,82.30
2023-03-15T12:50:44.060Z,76.50
2023-03-15T12:53:32.042Z,74.10
2023-03-15T12:56:30.343Z,76.20
2023-03-15T12:59:05.633Z,75.60
2023-03-15T13:01:33.597Z,81.70
2023-03-15T13:04:03.514Z,82.70
2023-03-15T13:06:55.778Z,82.10
2023-03-15T13:10:13.033Z,79.90
2023-03-15T13:13:04.012Z,72.90
2023-03-15T13:15:44.461Z,74.70
2023-03-15T13:18:23.403Z,76.40
2023-03-15T13:20:56.148Z,80.20
2023-03-15T13:23:32.155Z,76.80
2023-03-15T13:26:20.304Z,75.90
2023-03-15T13:29:01.242Z,76.90
2023-03-15T13:31:31.470Z,74.20
2023-03-15T13:34:16.707Z,74.60
2023-03-15T13:36:58.794Z,74.40
2023-03-15T13:39:32.912Z,77.80
2023-03-15T13:42:24.158Z,78.00
2023-03-15T13:45:09.190Z,73.00
2023-03-15T13:47:36.006Z,72.60
2023-03-15T13:50:07.805Z,82.10
2023-03-15T13:52:34.877Z,80.00
2023-03-15T13:55:03.128Z,82.20
2023-03-15T13:57:30.356Z,81.50
2023-03-15T14:00:01.885Z,80.70
2023-03-15T14:02:46.832Z,80.00
2023-03-15T14:05:18.994Z,71.80
2023-03-15T14:07:49.592Z,78.70
2023-03-15T14:10:27.672Z,78.70
2023-03-15T14:12:56.174Z,77.80
2023-03-15T14:15:41.744Z,78.90
2023-03-15T14:18:08.513Z,77.10
2023-03-15T14:20:43.343Z,80.60
2023-03-15T14:23:17.784Z,78.70
2023-03-15T14:25:55.874Z,79.80
2023-03-15T14:28:24.770Z,77.00
2023-03-15T14:30:56.159Z,80.90
2023-03-15T14:33:41.705Z,80.00
2023-03-15T14:36:25.577Z,75.40
2023-03-15T14:38:55.023Z,73.60
2023-03-15T14:41:37.090Z,79.00
2023-03-15T14:44:04.004Z,73.70
2023-03-15T14:46:32.096Z,78.50
2023-03-15T14:48:59.049Z,78.30
2023-03-15T14:51:28.930Z,78.40
2023-03-15T14:53:58.731Z,77.70
2023-03-15T14:56:26.081Z,78.40
2023-03-15T14:58:54.217Z,79.40
2023-03-15T15:01:26.359Z,79.80
2023-03-15T15:03:58.813Z,78.50
2023-03-15T15:06:28.066Z,78.90
2023-03-15T15:08:58.946Z,80.10
2023-03-15T15:11:27.396Z,78.70
2023-03-15T15:13:54.902Z,79.70
2023-03-15T15:16:21.866Z,80.00
2023-03-15T15:18:48.755Z,80.00
2023-03-15T15:21:27.420Z,79.90
2023-03-15T15:23:58.919Z,76.00
2023-03-15T15:26:29.957Z,79.70
2023-03-15T15:28:57.859Z,79.30
2023-03-15T15:31:27.901Z,80.10
2023-03-15T15:33:56.716Z,79.70
2023-03-15T15:36:32.754Z,79.90
2023-03-15T15:39:06.368Z,77.10
2023-03-15T15:41:34.150Z,79.80
2023-03-15T15:44:01.747Z,79.90
2023-03-15T15:46:28.922Z,79.70
2023-03-15T15:48:55.791Z,79.60
2023-03-15T15:51:38.582Z,79.90
2023-03-15T15:54:06.136Z,75.00
2023-03-15T15:56:44.288Z,79.30
2023-03-15T15:59:15.041Z,76.00
2023-03-15T16:01:56.554Z,78.90
2023-03-15T16:04:26.268Z,72.30
2023-03-15T16:07:01.730Z,80.50
2023-03-15T16:09:31.570Z,77.40
2023-03-15T16:11:58.682Z,79.90
2023-03-15T16:14:25.633Z,80.20
2023-03-15T16:16:52.479Z,80.40
2023-03-15T16:19:19.305Z,80.30
2023-03-15T16:21:51.543Z,80.30
2023-03-15T16:24:26.555Z,79.60
2023-03-15T16:27:02.085Z,79.40
2023-03-15T16:29:58.890Z,77.10
2023-03-15T16:32:42.856Z,71.80
2023-03-15T16:35:16.247Z,79.70
2023-03-15T16:37:43.909Z,79.90
2023-03-15T16:40:21.424Z,80.30
2023-03-15T16:42:49.797Z,78.30
2023-03-15T16:45:16.850Z,80.40
2023-03-15T16:47:44.157Z,80.50
2023-03-15T16:50:12.287Z,80.40
2023-03-15T16:52:42.121Z,80.40
2023-03-15T16:55:17.289Z,80.30
2023-03-15T16:57:44.351Z,77.90
2023-03-15T17:00:18.385Z,80.60
2023-03-15T17:02:48.257Z,78.90
2023-03-15T17:05:18.985Z,80.50
2023-03-15T17:07:47.654Z,80.50
2023-03-15T17:10:27.929Z,73.70
2023-03-15T17:12:57.090Z,78.80
2023-03-15T17:15:26.635Z,80.30
2023-03-15T17:17:57.539Z,80.50
2023-03-15T17:20:29.234Z,80.80
2023-03-15T17:23:03.901Z,79.00
2023-03-15T17:25:32.960Z,80.10
2023-03-15T17:28:00.441Z,80.80
2023-03-15T17:30:36.922Z,81.00
2023-03-15T17:33:04.925Z,79.20
2023-03-15T17:35:37.289Z,81.00
2023-03-15T17:38:07.335Z,80.10
2023-03-15T17:40:36.242Z,80.70
2023-03-15T17:43:05.061Z,80.70
2023-03-15T17:45:34.785Z,80.90
2023-03-15T17:48:02.469Z,80.80
2023-03-15T17:50:33.190Z,81.20
2023-03-15T17:53:05.246Z,80.90
2023-03-15T17:55:34.857Z,81.10
2023-03-15T17:58:09.166Z,80.90
2023-03-15T18:00:36.271Z,81.40
2023-03-15T18:03:04.518Z,81.10
2023-03-15T18:05:31.353Z,81.20
2023-03-15T18:07:59.569Z,81.30
2023-03-15T18:10:35.447Z,81.00
2023-03-15T18:13:03.859Z,80.40
2023-03-15T18:15:31.076Z,81.00
2023-03-15T18:17:57.958Z,81.20
2023-03-15T18:20:26.045Z,81.20
2023-03-15T18:22:52.950Z,81.30
2023-03-15T18:25:27.741Z,81.30
2023-03-15T18:27:55.100Z,79.60
2023-03-15T18:30:24.231Z,81.40
2023-03-15T18:32:53.451Z,81.20
2023-03-15T18:35:33.872Z,81.50
2023-03-15T18:38:01.634Z,77.20
2023-03-15T18:40:31.785Z,81.50
2023-03-15T18:43:00.289Z,81.30
2023-03-15T18:45:31.402Z,81.50
2023-03-15T18:48:01.411Z,81.00
2023-03-15T18:50:29.838Z,80.80
2023-03-15T18:52:57.509Z,80.60
2023-03-15T18:55:25.318Z,80.60
2023-03-15T18:57:54.965Z,80.80
2023-03-15T19:00:29.561Z,80.50
2023-03-15T19:02:59.939Z,80.00
2023-03-15T19:05:29.271Z,79.80
2023-03-15T19:07:56.465Z,80.10
2023-03-15T19:10:25.631Z,80.20
2023-03-15T19:12:53.535Z,80.20
2023-03-15T19:15:22.182Z,80.40
2023-03-15T19:17:54.270Z,80.60
2023-03-15T19:20:22.804Z,80.70
2023-03-15T19:22:51.214Z,80.90
2023-03-15T19:25:18.720Z,81.00
2023-03-15T19:27:46.084Z,81.10
2023-03-15T19:30:21.198Z,81.00
2023-03-15T19:32:50.162Z,80.50
2023-03-15T19:35:19.881Z,81.00
2023-03-15T19:37:48.038Z,80.80
2023-03-15T19:40:17.047Z,81.20
2023-03-15T19:42:44.659Z,81.40
2023-03-15T19:45:12.601Z,81.70
2023-03-15T19:47:40.198Z,81.90
2023-03-15T19:50:11.045Z,81.70
2023-03-15T19:52:45.615Z,81.80
2023-03-15T19:55:19.588Z,81.80
2023-03-15T19:57:47.621Z,81.50
2023-03-15T20:00:16.629Z,81.60
2023-03-15T20:02:45.095Z,81.00
2023-03-15T20:05:15.393Z,81.10
2023-03-15T20:07:43.370Z,81.10
2023-03-15T20:10:12.354Z,80.90
2023-03-15T20:12:42.280Z,80.90
2023-03-15T20:15:12.237Z,81.00
2023-03-15T20:17:40.894Z,80.90
2023-03-15T20:20:10.953Z,81.00
2023-03-15T20:22:41.409Z,81.00
2023-03-15T20:25:11.149Z,80.70
2023-03-15T20:27:38.375Z,80.60
2023-03-15T20:30:08.376Z,80.80
2023-03-15T20:32:35.551Z,80.50
2023-03-15T20:35:07.257Z,80.60
2023-03-15T20:37:35.353Z,80.80
2023-03-15T20:40:08.835Z,80.80
2023-03-15T20:42:36.037Z,80.50
2023-03-15T20:45:04.324Z,80.60
2023-03-15T20:47:31.344Z,80.70
2023-03-15T20:49:58.230Z,80.50
2023-03-15T20:52:25.505Z,80.60
2023-03-15T20:54:52.422Z,80.40
2023-03-15T20:57:19.401Z,80.50
2023-03-15T20:59:46.755Z,80.80
2023-03-15T21:02:13.615Z,80.90
2023-03-15T21:04:40.852Z,80.80
2023-03-15T21:07:07.962Z,80.70
2023-03-15T21:09:35.461Z,80.80
2023-03-15T21:12:02.713Z,80.60
2023-03-15T21:14:29.641Z,80.40
2023-03-15T21:16:56.632Z,80.30
2023-03-15T21:19:24.728Z,80.00
2023-03-15T21:21:51.596Z,79.70
2023-03-15T21:24:18.563Z,79.80
2023-03-15T21:26:48.588Z,80.00
2023-03-15T21:29:15.618Z,80.20
2023-03-15T21:31:42.583Z,79.80
2023-03-15T21:34:09.430Z,79.90
2023-03-15T21:36:36.264Z,80.00
2023-03-15T21:39:04.120Z,80.30
2023-03-15T21:41:31.947Z,80.30
2023-03-15T21:43:58.786Z,80.60
2023-03-15T21:46:26.349Z,80.80
2023-03-15T21:48:53.268Z,80.90
2023-03-15T21:51:22.225Z,81.00
2023-03-15T21:53:50.267Z,81.20
2023-03-15T21:56:17.191Z,81.10
2023-03-15T21:58:44.106Z,81.50
2023-03-15T22:01:13.781Z,81.30
2023-03-15T22:03:42.602Z,81.30
2023-03-15T22:06:09.934Z,81.50
2023-03-15T22:08:36.868Z,81.70
2023-03-15T22:11:04.596Z,81.60
2023-03-15T22:13:31.691Z,81.40
2023-03-15T22:15:59.105Z,81.50
2023-03-15T22:18:28.761Z,81.40
2023-03-15T22:20:56.858Z,81.30
2023-03-15T22:23:24.126Z,81.20
2023-03-15T22:25:53.434Z,81.10
2023-03-15T22:28:21.732Z,80.90
2023-03-15T22:30:50.244Z,80.90
2023-03-15T22:33:19.737Z,81.10
2023-03-15T22:35:46.631Z,81.30
2023-03-15T22:38:13.496Z,81.40
2023-03-15T22:40:41.245Z,81.50
2023-03-15T22:43:09.157Z,81.40
2023-03-15T22:45:37.195Z,81.40
2023-03-15T22:48:04.347Z,81.50
2023-03-15T22:50:31.620Z,81.60
2023-03-15T22:52:58.472Z,81.60
2023-03-15T22:55:25.436Z,81.70
2023-03-15T22:57:54.047Z,81.80
2023-03-15T23:00:23.489Z,82.00
2023-03-15T23:02:51.498Z,82.20
2023-03-15T23:05:21.290Z,82.20
2023-03-15T23:07:48.187Z,81.80
2023-03-15T23:10:15.802Z,82.00
2023-03-15T23:12:42.778Z,81.90
2023-03-15T23:15:12.293Z,81.90
2023-03-15T23:17:39.203Z,81.80
2023-03-15T23:20:07.403Z,81.80
2023-03-15T23:22:34.678Z,82.00
2023-03-15T23:25:01.668Z,81.70
2023-03-15T23:27:28.840Z,81.50
2023-03-15T23:29:55.722Z,81.40
2023-03-15T23:32:25.147Z,81.30
2023-03-15T23:34:53.541Z,81.00
2023-03-15T23:37:21.228Z,81.40
2023-03-15T23:39:48.157Z,81.50
2023-03-15T23:42:15.019Z,81.70
2023-03-15T23:44:42.176Z,81.70
2023-03-15T23:47:09.265Z,81.50
2023-03-15T23:49:36.162Z,81.50
2023-03-15T23:52:06.626Z,81.70
2023-03-15T23:54:40.262Z,81.80
2023-03-15T23:57:13.548Z,81.90
2023-03-15T23:59:42.198Z,81.10
